createdAt,value
2023-02-24T00:01:51.599Z,98711.38
2023-02-24T00:04:20.710Z,98695.19
2023-02-24T00:06:48.122Z,98697.72
2023-02-24T00:09:20.367Z,98641.88
2023-02-24T00:11:53.717Z,98528.72
2023-02-24T00:14:20.948Z,98578.03
2023-02-24T00:16:48.103Z,98681.75
2023-02-24T00:19:17.841Z,98486.38
2023-02-24T00:21:45.524Z,98670.41
2023-02-24T00:24:13.001Z,98625.53
2023-02-24T00:26:40.281Z,98671.09
2023-02-24T00:29:11.130Z,98663.16
2023-02-24T00:31:42.870Z,98653.44
2023-02-24T00:34:12.790Z,98641.50
2023-02-24T00:36:39.566Z,98639.47
2023-02-24T00:39:11.444Z,98633.44
2023-02-24T00:41:44.633Z,98623.94
2023-02-24T00:44:14.175Z,98617.34
2023-02-24T00:46:44.719Z,98615.59
2023-02-24T00:49:17.488Z,98612.91
2023-02-24T00:51:47.168Z,98597.53
2023-02-24T00:54:15.112Z,98567.97
2023-02-24T00:56:47.103Z,98585.84
2023-02-24T00:59:18.648Z,98585.47
2023-02-24T01:01:46.068Z,98582.44
2023-02-24T01:04:13.868Z,98505.66
2023-02-24T01:06:46.130Z,98570.13
2023-02-24T01:09:18.949Z,98419.72
2023-02-24T01:12:07.183Z,98556.94
2023-02-24T01:14:35.904Z,98552.00
2023-02-24T01:17:04.748Z,98545.44
2023-02-24T01:19:33.796Z,98530.84
2023-02-24T01:22:08.111Z,98519.63
2023-02-24T01:24:38.141Z,98522.00
2023-02-24T01:27:07.326Z,98384.06
2023-02-24T01:29:39.720Z,98378.22
2023-02-24T01:32:14.829Z,98375.19
2023-02-24T01:34:42.524Z,98489.16
2023-02-24T01:37:09.969Z,98498.34
2023-02-24T01:39:37.142Z,98497.97
2023-02-24T01:42:06.117Z,98517.34
2023-02-24T01:44:33.206Z,98417.75
2023-02-24T01:47:01.429Z,98597.78
2023-02-24T01:49:34.729Z,98316.13
2023-02-24T01:52:08.212Z,98469.75
2023-02-24T01:55:06.103Z,98445.13
2023-02-24T01:57:35.544Z,98508.41
2023-02-24T02:00:10.398Z,98417.66
2023-02-24T02:02:45.759Z,98460.22
2023-02-24T02:05:13.397Z,98451.25
2023-02-24T02:07:41.675Z,98454.03
2023-02-24T02:10:09.658Z,98444.91
2023-02-24T02:12:44.355Z,98359.91
2023-02-24T02:15:14.665Z,98232.75
2023-02-24T02:18:07.434Z,98437.41
2023-02-24T02:20:55.839Z,98432.47
2023-02-24T02:23:32.224Z,98422.41
2023-02-24T02:26:40.410Z,98424.50
2023-02-24T02:29:28.433Z,98419.66
2023-02-24T02:32:18.393Z,98415.50
2023-02-24T02:35:00.336Z,98409.53
2023-02-24T02:37:35.954Z,98415.09
2023-02-24T02:40:20.817Z,98411.41
2023-02-24T02:42:57.961Z,98375.69
2023-02-24T02:45:41.575Z,98405.78
2023-02-24T02:48:20.328Z,98403.31
2023-02-24T02:50:54.907Z,98410.94
2023-02-24T02:53:29.914Z,98280.72
2023-02-24T02:56:07.307Z,98192.31
2023-02-24T02:58:42.107Z,98384.41
2023-02-24T03:01:12.004Z,98411.03
2023-02-24T03:03:44.632Z,98436.97
2023-02-24T03:06:22.172Z,98397.34
2023-02-24T03:08:56.743Z,98387.75
2023-02-24T03:11:24.193Z,98307.00
2023-02-24T03:13:53.991Z,98381.41
2023-02-24T03:16:23.170Z,98376.41
2023-02-24T03:19:03.846Z,98351.56
2023-02-24T03:21:38.013Z,98355.47
2023-02-24T03:24:06.469Z,98360.19
2023-02-24T03:26:43.770Z,98221.31
2023-02-24T03:29:32.635Z,98174.94
2023-02-24T03:32:04.798Z,98360.00
2023-02-24T03:34:56.850Z,98349.25
2023-02-24T03:37:27.947Z,98351.13
2023-02-24T03:39:58.982Z,98304.78
2023-02-24T03:42:33.790Z,98346.00
2023-02-24T03:45:02.152Z,98348.31
2023-02-24T03:47:30.262Z,98346.59
2023-02-24T03:49:57.019Z,98275.03
2023-02-24T03:52:57.750Z,98347.84
2023-02-24T03:56:06.319Z,98346.97
2023-02-24T03:59:12.985Z,98352.06
2023-02-24T04:02:05.354Z,98310.72
2023-02-24T04:04:45.509Z,98339.69
2023-02-24T04:07:59.655Z,98206.34
2023-02-24T04:10:34.064Z,98293.81
2023-02-24T04:13:28.277Z,98343.28
2023-02-24T04:16:01.670Z,98097.97
2023-02-24T04:18:32.087Z,98343.75
2023-02-24T04:21:02.977Z,98102.63
2023-02-24T04:23:38.736Z,98348.22
2023-02-24T04:26:06.631Z,97913.31
2023-02-24T04:28:34.650Z,98326.06
2023-02-24T04:31:10.022Z,98356.41
2023-02-24T04:33:40.616Z,98291.28
2023-02-24T04:36:09.175Z,98343.59
2023-02-24T04:38:39.124Z,98195.72
2023-02-24T04:41:06.118Z,98180.41
2023-02-24T04:43:32.688Z,97771.47
2023-02-24T04:45:59.500Z,98335.47
2023-02-24T04:48:26.081Z,98173.00
2023-02-24T04:50:55.114Z,98334.09
2023-02-24T04:53:27.174Z,98200.75
2023-02-24T04:55:56.187Z,98332.66
2023-02-24T04:58:28.609Z,98275.56
2023-02-24T05:00:56.077Z,98325.53
2023-02-24T05:03:28.050Z,98276.88
2023-02-24T05:05:57.020Z,98267.09
2023-02-24T05:08:25.074Z,98321.09
2023-02-24T05:10:51.953Z,98177.47
2023-02-24T05:13:20.221Z,98331.72
2023-02-24T05:15:48.301Z,98287.78
2023-02-24T05:18:20.424Z,98327.34
2023-02-24T05:21:07.984Z,98327.66
2023-02-24T05:23:46.331Z,98325.00
2023-02-24T05:26:18.548Z,98101.47
2023-02-24T05:28:52.282Z,98324.28
2023-02-24T05:31:26.366Z,98331.88
2023-02-24T05:33:57.643Z,98326.50
2023-02-24T05:36:26.106Z,98374.19
2023-02-24T05:39:07.281Z,98329.41
2023-02-24T05:41:36.463Z,98332.66
2023-02-24T05:44:08.534Z,98283.06
2023-02-24T05:46:38.387Z,98197.34
2023-02-24T05:49:11.476Z,98332.69
2023-02-24T05:51:39.263Z,98330.00
2023-02-24T05:54:11.098Z,98215.75
2023-02-24T05:56:40.070Z,98329.59
2023-02-24T05:59:11.216Z,98331.06
2023-02-24T06:01:45.558Z,98130.47
2023-02-24T06:04:20.947Z,98325.44
2023-02-24T06:06:58.104Z,98322.22
2023-02-24T06:09:24.718Z,98319.59
2023-02-24T06:11:51.544Z,98320.31
2023-02-24T06:14:18.214Z,98323.06
2023-02-24T06:16:44.861Z,98323.47
2023-02-24T06:19:13.195Z,98321.16
2023-02-24T06:21:42.031Z,98326.13
2023-02-24T06:24:18.301Z,98326.94
2023-02-24T06:26:46.000Z,98327.19
2023-02-24T06:29:17.913Z,98338.72
2023-02-24T06:31:45.055Z,98362.56
2023-02-24T06:34:13.890Z,98333.41
2023-02-24T06:36:40.900Z,98327.31
2023-02-24T06:39:08.147Z,98334.03
2023-02-24T06:41:37.847Z,98333.34
2023-02-24T06:44:04.526Z,98299.31
2023-02-24T06:46:31.620Z,98341.53
2023-02-24T06:48:58.193Z,98341.75
2023-02-24T06:51:24.904Z,98336.31
2023-02-24T06:53:52.313Z,98312.81
2023-02-24T06:56:19.911Z,98339.75
2023-02-24T06:58:47.780Z,98341.47
2023-02-24T07:01:16.552Z,98368.28
2023-02-24T07:04:02.403Z,98321.72
2023-02-24T07:06:31.474Z,98340.38
2023-02-24T07:08:58.797Z,98166.13
2023-02-24T07:11:27.711Z,98345.50
2023-02-24T07:13:54.669Z,98349.72
2023-02-24T07:16:25.205Z,98344.22
2023-02-24T07:18:56.787Z,98353.72
2023-02-24T07:21:30.151Z,98356.56
2023-02-24T07:23:59.096Z,98308.66
2023-02-24T07:26:27.843Z,98331.59
2023-02-24T07:28:56.661Z,98371.78
2023-02-24T07:31:26.076Z,98268.22
2023-02-24T07:33:55.683Z,98372.44
2023-02-24T07:36:23.361Z,98335.25
2023-02-24T07:38:52.765Z,98385.81
2023-02-24T07:41:22.724Z,98349.59
2023-02-24T07:43:50.834Z,98378.44
2023-02-24T07:46:20.648Z,98344.34
2023-02-24T07:48:47.262Z,98381.09
2023-02-24T07:51:19.363Z,98288.91
2023-02-24T07:53:52.963Z,98277.25
2023-02-24T07:56:26.853Z,98400.41
2023-02-24T07:59:11.064Z,98397.94
2023-02-24T08:01:41.921Z,98363.25
2023-02-24T08:04:12.487Z,98344.47
2023-02-24T08:06:45.463Z,98406.16
2023-02-24T08:09:20.732Z,98243.31
2023-02-24T08:11:53.588Z,98418.28
2023-02-24T08:14:32.979Z,98412.25
2023-02-24T08:16:59.731Z,98416.50
2023-02-24T08:19:39.456Z,98277.41
2023-02-24T08:22:19.740Z,98424.66
2023-02-24T08:25:05.887Z,98426.06
2023-02-24T08:27:38.969Z,98426.66
2023-02-24T08:30:07.962Z,98425.63
2023-02-24T08:32:39.061Z,98432.84
2023-02-24T08:35:15.261Z,98428.69
2023-02-24T08:37:48.332Z,98438.06
2023-02-24T08:40:32.884Z,98286.00
2023-02-24T08:43:17.173Z,98246.88
2023-02-24T08:45:50.867Z,98443.03
2023-02-24T08:48:26.804Z,98364.09
2023-02-24T08:50:56.778Z,98450.75
2023-02-24T08:53:29.623Z,98450.97
2023-02-24T08:55:56.467Z,98244.78
2023-02-24T08:58:27.132Z,98332.88
2023-02-24T09:00:57.088Z,98390.78
2023-02-24T09:03:29.784Z,98397.59
2023-02-24T09:06:09.063Z,98443.31
2023-02-24T09:08:38.649Z,98450.78
2023-02-24T09:11:13.932Z,98461.56
2023-02-24T09:13:51.919Z,98466.63
2023-02-24T09:16:21.171Z,98457.97
2023-02-24T09:19:07.764Z,98346.94
2023-02-24T09:21:49.538Z,98449.09
2023-02-24T09:24:27.029Z,98456.66
2023-02-24T09:26:59.783Z,98452.06
2023-02-24T09:29:49.173Z,98404.53
2023-02-24T09:32:16.233Z,98470.44
2023-02-24T09:34:47.281Z,98210.44
2023-02-24T09:37:26.811Z,98424.88
2023-02-24T09:39:54.488Z,98306.44
2023-02-24T09:42:34.392Z,98457.19
2023-02-24T09:45:11.477Z,98371.53
2023-02-24T09:47:57.295Z,98414.44
2023-02-24T09:51:04.129Z,98483.28
2023-02-24T09:53:49.146Z,98469.66
2023-02-24T09:56:22.083Z,98481.16
2023-02-24T09:58:58.570Z,98454.59
2023-02-24T10:01:42.957Z,98470.50
2023-02-24T10:04:31.617Z,98477.50
2023-02-24T10:07:11.038Z,98417.47
2023-02-24T10:09:43.239Z,98366.66
2023-02-24T10:12:19.045Z,98469.09
2023-02-24T10:15:00.529Z,98396.22
2023-02-24T10:17:40.251Z,98472.13
2023-02-24T10:20:30.850Z,98491.63
2023-02-24T10:23:10.424Z,98421.91
2023-02-24T10:25:57.357Z,98495.38
2023-02-24T10:28:36.000Z,98493.25
2023-02-24T10:31:25.321Z,98469.47
2023-02-24T10:33:59.461Z,98468.06
2023-02-24T10:36:35.976Z,98501.78
2023-02-24T10:39:15.822Z,98493.06
2023-02-24T10:41:49.130Z,98457.56
2023-02-24T10:44:24.240Z,98515.72
2023-02-24T10:47:17.807Z,98380.41
2023-02-24T10:49:58.494Z,98517.66
2023-02-24T10:52:58.116Z,98501.50
2023-02-24T10:55:44.943Z,98503.03
2023-02-24T10:58:44.585Z,98504.41
2023-02-24T11:01:21.045Z,98497.69
2023-02-24T11:04:01.550Z,98363.34
2023-02-24T11:06:41.741Z,98510.63
2023-02-24T11:09:29.647Z,98512.00
2023-02-24T11:12:19.227Z,98511.19
2023-02-24T11:15:17.923Z,98437.94
2023-02-24T11:17:49.000Z,98513.09
2023-02-24T11:20:33.643Z,98514.75
2023-02-24T11:23:14.863Z,98506.09
2023-02-24T11:26:04.705Z,98510.25
2023-02-24T11:28:39.217Z,98501.94
2023-02-24T11:31:51.914Z,98330.78
2023-02-24T11:34:43.159Z,98508.09
2023-02-24T11:37:34.635Z,98456.13
2023-02-24T11:40:16.608Z,98503.66
2023-02-24T11:42:51.500Z,98410.59
2023-02-24T11:45:22.750Z,98506.56
2023-02-24T11:47:54.136Z,98385.88
2023-02-24T11:50:32.179Z,98345.16
2023-02-24T11:53:05.565Z,98381.53
2023-02-24T11:55:42.972Z,98615.53
2023-02-24T11:58:37.533Z,98369.75
2023-02-24T12:01:18.481Z,98384.66
2023-02-24T12:03:57.069Z,98502.47
2023-02-24T12:06:33.055Z,98502.19
2023-02-24T12:09:09.384Z,98504.44
2023-02-24T12:11:43.793Z,98432.59
2023-02-24T12:14:21.537Z,98394.16
2023-02-24T12:16:56.530Z,98427.88
2023-02-24T12:19:32.071Z,98515.00
2023-02-24T12:22:05.883Z,98517.16
2023-02-24T12:24:35.888Z,98273.31
2023-02-24T12:27:19.431Z,98517.72
2023-02-24T12:30:22.968Z,98517.91
2023-02-24T12:33:07.419Z,98512.66
2023-02-24T12:35:54.176Z,98516.84
2023-02-24T12:38:48.803Z,98519.44
2023-02-24T12:41:47.644Z,98523.66
2023-02-24T12:44:44.319Z,98525.91
2023-02-24T12:47:43.011Z,98534.81
2023-02-24T12:50:46.699Z,98529.78
2023-02-24T12:53:39.921Z,98545.25
2023-02-24T12:56:25.216Z,98534.44
2023-02-24T12:58:58.574Z,98483.56
2023-02-24T13:01:48.540Z,98560.38
2023-02-24T13:04:17.940Z,98551.28
2023-02-24T13:07:15.274Z,98556.13
2023-02-24T13:10:14.537Z,98546.56
2023-02-24T13:12:59.769Z,98560.00
2023-02-24T13:15:31.382Z,98554.63
2023-02-24T13:17:58.482Z,98466.59
2023-02-24T13:20:36.908Z,98461.63
2023-02-24T13:23:19.497Z,98391.75
2023-02-24T13:25:54.571Z,98420.56
2023-02-24T13:28:27.815Z,98580.59
2023-02-24T13:31:02.224Z,98462.72
2023-02-24T13:33:44.089Z,98443.16
2023-02-24T13:36:23.052Z,98456.69
2023-02-24T13:38:52.694Z,98591.19
2023-02-24T13:41:22.644Z,98575.72
2023-02-24T13:44:18.546Z,98581.28
2023-02-24T13:47:22.689Z,98603.41
2023-02-24T13:50:26.301Z,98601.41
2023-02-24T13:53:13.408Z,98606.50
2023-02-24T13:56:09.781Z,98613.88
2023-02-24T13:58:50.307Z,98605.53
2023-02-24T14:01:19.188Z,98624.94
2023-02-24T14:04:04.061Z,98569.69
2023-02-24T14:06:31.337Z,98524.94
2023-02-24T14:09:02.286Z,98633.22
2023-02-24T14:11:34.775Z,98631.59
2023-02-24T14:14:01.624Z,98646.22
2023-02-24T14:16:39.979Z,98573.13
2023-02-24T14:19:14.123Z,98653.84
2023-02-24T14:21:51.869Z,98523.66
2023-02-24T14:24:20.066Z,98566.00
2023-02-24T14:26:57.611Z,98653.47
2023-02-24T14:29:35.204Z,98564.78
2023-02-24T14:32:23.183Z,98566.81
2023-02-24T14:34:50.887Z,98664.13
2023-02-24T14:37:23.296Z,98656.28
2023-02-24T14:39:54.629Z,98577.22
2023-02-24T14:42:21.947Z,98596.06
2023-02-24T14:44:53.991Z,98529.84
2023-02-24T14:47:23.992Z,98615.69
2023-02-24T14:49:59.663Z,98672.66
2023-02-24T14:52:39.080Z,98680.50
2023-02-24T14:55:19.623Z,98566.56
2023-02-24T14:58:00.249Z,98681.63
2023-02-24T15:00:39.901Z,98538.66
2023-02-24T15:03:15.934Z,98557.94
2023-02-24T15:05:45.657Z,98688.06
2023-02-24T15:08:39.458Z,98688.09
2023-02-24T15:11:15.219Z,98691.13
2023-02-24T15:13:46.220Z,98689.63
2023-02-24T15:16:24.719Z,98698.28
2023-02-24T15:18:54.151Z,98581.66
2023-02-24T15:21:33.432Z,98677.69
2023-02-24T15:24:18.729Z,98700.41
2023-02-24T15:26:57.448Z,98698.97
2023-02-24T15:29:27.663Z,98679.69
2023-02-24T15:31:56.735Z,98699.81
2023-02-24T15:34:32.278Z,98708.94
2023-02-24T15:37:04.309Z,98602.34
2023-02-24T15:39:32.556Z,98732.00
2023-02-24T15:42:08.764Z,98721.34
2023-02-24T15:44:36.520Z,98665.88
2023-02-24T15:47:22.000Z,98537.88
2023-02-24T15:49:48.735Z,98671.81
2023-02-24T15:52:20.361Z,98613.19
2023-02-24T15:54:46.985Z,98736.09
2023-02-24T15:57:16.528Z,98746.97
2023-02-24T15:59:43.967Z,98747.31
2023-02-24T16:02:14.081Z,98768.50
2023-02-24T16:04:40.751Z,98634.22
2023-02-24T16:07:11.469Z,98620.13
2023-02-24T16:09:40.914Z,98767.41
2023-02-24T16:12:13.430Z,98768.47
2023-02-24T16:14:41.058Z,98771.88
2023-02-24T16:17:16.953Z,98780.25
2023-02-24T16:19:44.238Z,98785.66
2023-02-24T16:22:10.974Z,98788.03
2023-02-24T16:24:38.160Z,98788.16
2023-02-24T16:27:06.167Z,98688.13
2023-02-24T16:29:32.780Z,98745.81
2023-02-24T16:31:59.698Z,98801.19
2023-02-24T16:34:26.411Z,98784.25
2023-02-24T16:36:53.068Z,98777.72
2023-02-24T16:39:19.684Z,98796.03
2023-02-24T16:41:46.265Z,98625.75
2023-02-24T16:44:12.960Z,98763.75
2023-02-24T16:46:43.696Z,98783.34
2023-02-24T16:49:17.674Z,98816.38
2023-02-24T16:51:44.355Z,98795.56
2023-02-24T16:54:10.954Z,98738.19
2023-02-24T16:56:38.041Z,98829.69
2023-02-24T16:59:04.598Z,98594.63
2023-02-24T17:01:31.653Z,98823.63
2023-02-24T17:03:58.713Z,98847.66
2023-02-24T17:06:26.112Z,98856.81
2023-02-24T17:08:53.008Z,98805.69
2023-02-24T17:11:21.181Z,98866.56
2023-02-24T17:13:47.833Z,98753.88
2023-02-24T17:16:14.448Z,98878.78
2023-02-24T17:18:41.143Z,98878.88
2023-02-24T17:21:09.520Z,98737.06
2023-02-24T17:23:36.111Z,98881.28
2023-02-24T17:26:02.944Z,98708.56
2023-02-24T17:28:29.854Z,98859.66
2023-02-24T17:30:56.617Z,98795.72
2023-02-24T17:33:23.593Z,98907.47
2023-02-24T17:35:50.437Z,98526.16
2023-02-24T17:38:19.935Z,98893.47
2023-02-24T17:40:47.711Z,98910.22
2023-02-24T17:43:14.377Z,98917.50
2023-02-24T17:45:44.689Z,98845.34
2023-02-24T17:48:12.878Z,98920.81
2023-02-24T17:50:43.936Z,98923.66
2023-02-24T17:53:10.568Z,98926.16
2023-02-24T17:55:37.580Z,98776.72
2023-02-24T17:58:04.772Z,98718.13
2023-02-24T18:00:31.482Z,98936.59
2023-02-24T18:02:58.223Z,98934.75
2023-02-24T18:05:25.165Z,98751.38
2023-02-24T18:07:53.508Z,98895.19
2023-02-24T18:10:20.257Z,98816.44
2023-02-24T18:12:46.988Z,98943.38
2023-02-24T18:15:13.541Z,98948.59
2023-02-24T18:17:40.227Z,98957.53
2023-02-24T18:20:08.761Z,98953.75
2023-02-24T18:22:35.776Z,98957.22
2023-02-24T18:25:02.782Z,98926.66
2023-02-24T18:27:29.687Z,98907.44
2023-02-24T18:29:56.312Z,98983.31
2023-02-24T18:32:23.128Z,98998.91
2023-02-24T18:34:49.808Z,98984.13
2023-02-24T18:37:16.482Z,98993.09
2023-02-24T18:39:43.077Z,98999.84
2023-02-24T18:42:09.962Z,98939.63
2023-02-24T18:44:36.588Z,99003.97
2023-02-24T18:47:09.292Z,99002.41
2023-02-24T18:49:36.455Z,99004.78
2023-02-24T18:52:05.274Z,99010.13
2023-02-24T18:54:33.095Z,99004.38
2023-02-24T18:56:59.773Z,99010.16
2023-02-24T18:59:26.362Z,99009.59
2023-02-24T19:01:54.018Z,98952.78
2023-02-24T19:04:20.671Z,99026.25
2023-02-24T19:06:49.077Z,99032.19
2023-02-24T19:09:16.704Z,99036.28
2023-02-24T19:11:43.305Z,99030.66
2023-02-24T19:14:13.378Z,99003.44
2023-02-24T19:16:40.651Z,99037.97
2023-02-24T19:19:07.432Z,98895.06
2023-02-24T19:21:34.150Z,98901.50
2023-02-24T19:24:03.548Z,98876.88
2023-02-24T19:26:30.409Z,98972.16
2023-02-24T19:28:58.586Z,98878.81
2023-02-24T19:31:29.216Z,99044.22
2023-02-24T19:34:00.204Z,98906.72
2023-02-24T19:36:28.348Z,99053.97
2023-02-24T19:38:55.461Z,98822.44
2023-02-24T19:41:22.290Z,99062.03
2023-02-24T19:43:49.008Z,99062.41
2023-02-24T19:46:16.897Z,99065.06
2023-02-24T19:48:43.671Z,99055.72
2023-02-24T19:51:14.732Z,99069.34
2023-02-24T19:53:41.517Z,99108.63
2023-02-24T19:56:08.195Z,99075.06
2023-02-24T19:58:35.881Z,99065.63
2023-02-24T20:01:10.744Z,99093.34
2023-02-24T20:03:38.922Z,98956.31
2023-02-24T20:06:06.167Z,99074.88
2023-02-24T20:08:34.841Z,99068.34
2023-02-24T20:11:03.336Z,99103.88
2023-02-24T20:13:30.406Z,99104.44
2023-02-24T20:16:14.135Z,99106.94
2023-02-24T20:18:42.417Z,99102.44
2023-02-24T20:21:10.972Z,99108.03
2023-02-24T20:23:38.994Z,99113.88
2023-02-24T20:26:06.660Z,99112.31
2023-02-24T20:28:33.320Z,99109.66
2023-02-24T20:31:06.792Z,99090.91
2023-02-24T20:33:33.593Z,99117.00
2023-02-24T20:36:00.320Z,98986.69
2023-02-24T20:38:29.060Z,99139.44
2023-02-24T20:40:58.886Z,99144.84
2023-02-24T20:43:26.738Z,99092.56
2023-02-24T20:45:53.335Z,99130.19
2023-02-24T20:48:20.049Z,98965.06
2023-02-24T20:50:46.700Z,98907.88
2023-02-24T20:53:13.410Z,99150.09
2023-02-24T20:55:39.967Z,99151.81
2023-02-24T20:58:07.190Z,99153.28
2023-02-24T21:00:34.280Z,99059.75
2023-02-24T21:03:01.348Z,99024.84
2023-02-24T21:05:28.021Z,99165.28
2023-02-24T21:07:54.720Z,99145.41
2023-02-24T21:10:25.827Z,99166.38
2023-02-24T21:12:52.932Z,99021.69
2023-02-24T21:15:20.072Z,99170.50
2023-02-24T21:17:46.804Z,99193.88
2023-02-24T21:20:13.697Z,99045.75
2023-02-24T21:22:41.092Z,99153.84
2023-02-24T21:25:10.822Z,99179.13
2023-02-24T21:27:38.362Z,99197.72
2023-02-24T21:30:06.976Z,99190.66
2023-02-24T21:32:33.942Z,99188.19
2023-02-24T21:35:00.592Z,99208.34
2023-02-24T21:37:27.407Z,99194.13
2023-02-24T21:39:53.997Z,99192.75
2023-02-24T21:42:22.204Z,99191.03
2023-02-24T21:44:51.030Z,99129.38
2023-02-24T21:47:18.458Z,99198.97
2023-02-24T21:49:46.176Z,99199.91
2023-02-24T21:52:13.106Z,99129.94
2023-02-24T21:54:40.009Z,98844.38
2023-02-24T21:57:06.764Z,99164.06
2023-02-24T21:59:33.362Z,99168.94
2023-02-24T22:02:00.169Z,99229.41
2023-02-24T22:04:28.965Z,99216.00
2023-02-24T22:06:57.972Z,99186.13
2023-02-24T22:09:25.497Z,98968.91
2023-02-24T22:11:52.165Z,98989.38
2023-02-24T22:14:18.898Z,99226.50
2023-02-24T22:16:45.768Z,99223.78
2023-02-24T22:19:12.523Z,99222.34
2023-02-24T22:21:42.248Z,99229.50
2023-02-24T22:24:12.922Z,99122.75
2023-02-24T22:26:40.185Z,99238.00
2023-02-24T22:29:07.073Z,99244.66
2023-02-24T22:31:34.948Z,99196.84
2023-02-24T22:34:04.351Z,99212.72
2023-02-24T22:36:33.668Z,99247.25
2023-02-24T22:39:01.284Z,99286.72
2023-02-24T22:41:32.770Z,99251.44
2023-02-24T22:44:00.949Z,99282.31
2023-02-24T22:46:30.545Z,99230.31
2023-02-24T22:48:57.790Z,99261.16
2023-02-24T22:51:25.050Z,99263.16
2023-02-24T22:53:52.730Z,99268.13
2023-02-24T22:56:23.261Z,99093.66
2023-02-24T22:58:50.802Z,99217.34
2023-02-24T23:01:29.912Z,99278.75
2023-02-24T23:04:00.608Z,99285.19
2023-02-24T23:06:27.693Z,99148.34
2023-02-24T23:08:54.645Z,99295.25
2023-02-24T23:11:32.495Z,99291.69
2023-02-24T23:14:02.168Z,99299.53
2023-02-24T23:16:31.702Z,99266.34
2023-02-24T23:19:00.907Z,99174.88
2023-02-24T23:21:37.758Z,99305.59
2023-02-24T23:24:06.379Z,99253.38
2023-02-24T23:26:34.280Z,99294.97
2023-02-24T23:29:01.761Z,99302.78
2023-02-24T23:31:29.035Z,99299.56
2023-02-24T23:33:55.670Z,99297.44
2023-02-24T23:36:23.937Z,99299.94
2023-02-24T23:38:51.801Z,99305.25
2023-02-24T23:41:19.378Z,99298.41
2023-02-24T23:43:45.984Z,99180.34
2023-02-24T23:46:13.245Z,99188.41
2023-02-24T23:48:40.457Z,99306.75
2023-02-24T23:51:12.322Z,99298.28
2023-02-24T23:53:43.940Z,99307.47
2023-02-24T23:56:18.007Z,99309.63
2023-02-24T23:58:48.995Z,99194.34
